createdAt,value
2022-09-06T00:00:37.368Z,3.80
2022-09-06T00:03:06.057Z,3.90
2022-09-06T00:05:51.407Z,3.33
2022-09-06T00:08:29.427Z,3.60
2022-09-06T00:11:02.055Z,3.60
2022-09-06T00:13:33.727Z,3.40
2022-09-06T00:16:26.328Z,3.90
2022-09-06T00:19:02.561Z,4.13
2022-09-06T00:21:41.399Z,4.07
2022-09-06T00:24:19.260Z,3.80
2022-09-06T00:27:06.888Z,3.50
2022-09-06T00:29:35.589Z,3.47
2022-09-06T00:32:15.004Z,4.05
2022-09-06T00:34:45.266Z,3.20
2022-09-06T00:37:15.603Z,3.37
2022-09-06T00:39:46.137Z,3.20
2022-09-06T00:42:14.341Z,3.50
2022-09-06T00:44:53.533Z,4.53
2022-09-06T00:47:33.565Z,3.20
2022-09-06T00:50:04.833Z,3.53
2022-09-06T00:52:34.008Z,3.20
2022-09-06T00:55:02.335Z,3.53
2022-09-06T00:57:36.701Z,3.40
2022-09-06T01:00:10.499Z,3.60
2022-09-06T01:02:44.142Z,3.78
2022-09-06T01:05:19.205Z,3.30
2022-09-06T01:08:18.871Z,3.38
2022-09-06T01:11:10.371Z,3.63
2022-09-06T01:14:07.089Z,3.17
2022-09-06T01:16:50.205Z,3.17
2022-09-06T01:20:15.053Z,3.53
2022-09-06T01:23:20.967Z,3.80
2022-09-06T01:26:35.940Z,3.58
2022-09-06T01:29:21.561Z,3.50
2022-09-06T01:31:59.986Z,3.40
2022-09-06T01:34:43.662Z,3.30
2022-09-06T01:37:23.096Z,3.83
2022-09-06T01:39:57.107Z,3.55
2022-09-06T01:42:31.801Z,3.40
2022-09-06T01:45:02.904Z,3.55
2022-09-06T01:47:47.349Z,3.50
2022-09-06T01:50:38.425Z,3.53
2022-09-06T01:53:30.697Z,3.15
2022-09-06T01:56:19.379Z,3.53
2022-09-06T01:58:50.289Z,3.10
2022-09-06T02:01:21.122Z,3.75
2022-09-06T02:04:03.042Z,3.65
2022-09-06T02:06:40.632Z,3.67
2022-09-06T02:09:12.650Z,3.50
2022-09-06T02:11:52.077Z,3.90
2022-09-06T02:14:57.969Z,3.33
2022-09-06T02:17:38.072Z,3.90
2022-09-06T02:20:17.639Z,4.15
2022-09-06T02:22:52.704Z,3.67
2022-09-06T02:25:33.079Z,3.42
2022-09-06T02:28:02.768Z,4.30
2022-09-06T02:30:43.755Z,3.53
2022-09-06T02:33:22.344Z,3.78
2022-09-06T02:35:56.933Z,3.80
2022-09-06T02:38:35.130Z,3.60
2022-09-06T02:41:07.028Z,3.90
2022-09-06T02:43:39.472Z,3.70
2022-09-06T02:46:07.510Z,3.77
2022-09-06T02:48:45.852Z,3.58
2022-09-06T02:51:20.605Z,3.70
2022-09-06T02:53:53.394Z,3.97
2022-09-06T02:56:26.577Z,3.97
2022-09-06T02:58:54.382Z,3.67
2022-09-06T03:01:22.536Z,3.77
2022-09-06T03:03:50.486Z,3.53
2022-09-06T03:06:27.860Z,4.03
2022-09-06T03:09:00.230Z,3.50
2022-09-06T03:11:28.989Z,4.05
2022-09-06T03:14:00.102Z,3.72
2022-09-06T03:16:34.351Z,3.90
2022-09-06T03:19:02.213Z,4.63
2022-09-06T03:21:33.171Z,4.10
2022-09-06T03:24:08.131Z,4.30
2022-09-06T03:26:38.328Z,3.63
2022-09-06T03:29:16.360Z,4.18
2022-09-06T03:31:54.022Z,4.10
2022-09-06T03:34:27.332Z,3.70
2022-09-06T03:36:56.887Z,3.97
2022-09-06T03:39:24.813Z,4.23
2022-09-06T03:41:52.755Z,3.95
2022-09-06T03:44:26.291Z,4.47
2022-09-06T03:46:54.296Z,4.90
2022-09-06T03:49:41.866Z,4.90
2022-09-06T03:52:09.701Z,4.25
2022-09-06T03:54:39.693Z,4.80
2022-09-06T03:57:07.633Z,4.53
2022-09-06T03:59:40.209Z,6.03
2022-09-06T04:02:13.058Z,5.00
2022-09-06T04:04:45.740Z,4.45
2022-09-06T04:07:15.768Z,4.68
2022-09-06T04:09:47.509Z,5.13
2022-09-06T04:12:18.462Z,4.50
2022-09-06T04:14:47.290Z,5.23
2022-09-06T04:17:15.145Z,5.53
2022-09-06T04:19:42.904Z,4.32
2022-09-06T04:22:20.878Z,5.38
2022-09-06T04:24:48.516Z,4.93
2022-09-06T04:27:16.248Z,5.28
2022-09-06T04:29:44.346Z,6.05
2022-09-06T04:32:15.152Z,5.95
2022-09-06T04:34:42.788Z,6.50
2022-09-06T04:37:10.646Z,6.60
2022-09-06T04:39:38.488Z,7.05
2022-09-06T04:42:06.386Z,6.15
2022-09-06T04:44:36.350Z,5.97
2022-09-06T04:47:13.942Z,6.22
2022-09-06T04:49:43.593Z,5.75
2022-09-06T04:52:14.142Z,6.32
2022-09-06T04:54:42.971Z,7.28
2022-09-06T04:57:11.040Z,7.17
2022-09-06T04:59:38.653Z,6.37
2022-09-06T05:02:06.417Z,17.23
2022-09-06T05:04:34.100Z,8.07
2022-09-06T05:07:05.234Z,6.97
2022-09-06T05:09:33.750Z,7.10
2022-09-06T05:12:02.008Z,7.43
2022-09-06T05:14:29.964Z,7.13
2022-09-06T05:16:57.834Z,6.95
2022-09-06T05:19:26.571Z,7.67
2022-09-06T05:21:54.189Z,7.30
2022-09-06T05:24:21.826Z,6.80
2022-09-06T05:26:49.401Z,7.03
2022-09-06T05:29:17.353Z,7.00
2022-09-06T05:31:45.100Z,6.25
2022-09-06T05:34:13.663Z,6.40
2022-09-06T05:36:42.328Z,7.00
2022-09-06T05:39:12.208Z,6.20
2022-09-06T05:41:41.214Z,6.27
2022-09-06T05:44:09.159Z,6.63
2022-09-06T05:46:42.843Z,6.35
2022-09-06T05:49:10.746Z,6.60
2022-09-06T05:51:38.509Z,6.30
2022-09-06T05:54:06.697Z,7.50
2022-09-06T05:56:34.634Z,6.50
2022-09-06T05:59:05.635Z,5.97
2022-09-06T06:01:33.474Z,6.50
2022-09-06T06:04:04.013Z,6.55
2022-09-06T06:06:33.975Z,6.73
2022-09-06T06:09:02.162Z,6.17
2022-09-06T06:11:31.550Z,6.07
2022-09-06T06:13:59.642Z,6.35
2022-09-06T06:16:28.232Z,6.38
2022-09-06T06:18:56.090Z,5.97
2022-09-06T06:21:30.895Z,6.22
2022-09-06T06:24:01.020Z,6.00
2022-09-06T06:26:33.071Z,5.33
2022-09-06T06:29:02.686Z,6.10
2022-09-06T06:31:32.968Z,5.50
2022-09-06T06:34:03.373Z,6.47
2022-09-06T06:36:34.036Z,5.78
2022-09-06T06:39:03.870Z,6.18
2022-09-06T06:41:33.005Z,6.10
2022-09-06T06:44:04.067Z,7.00
2022-09-06T06:46:34.640Z,7.03
2022-09-06T06:49:02.486Z,7.95
2022-09-06T06:51:33.619Z,7.10
2022-09-06T06:54:01.203Z,6.63
2022-09-06T06:56:31.367Z,6.20
2022-09-06T06:59:02.229Z,7.05
2022-09-06T07:01:32.640Z,7.25
2022-09-06T07:04:00.564Z,7.20
2022-09-06T07:09:18.590Z,6.45
2022-09-06T07:11:49.136Z,6.68
2022-09-06T07:14:18.079Z,7.07
2022-09-06T07:16:46.368Z,7.47
2022-09-06T07:22:04.587Z,7.20
2022-09-06T07:24:34.083Z,6.60
2022-09-06T07:29:53.191Z,5.78
2022-09-06T07:32:21.614Z,6.00
2022-09-06T07:34:49.835Z,6.35
2022-09-06T07:37:17.606Z,7.10
2022-09-06T07:39:46.581Z,6.18
2022-09-06T07:42:17.489Z,5.93
2022-09-06T07:44:46.332Z,7.07
2022-09-06T07:53:11.949Z,5.93
2022-09-06T07:55:41.311Z,6.70
2022-09-06T07:58:08.956Z,7.35
2022-09-06T08:00:36.958Z,7.53
2022-09-06T08:03:10.690Z,6.17
2022-09-06T08:11:14.719Z,6.72
2022-09-06T08:13:42.733Z,6.22
2022-09-06T08:16:12.231Z,6.32
2022-09-06T08:18:40.020Z,6.82
2022-09-06T08:21:12.900Z,6.57
2022-09-06T08:24:05.910Z,7.40
2022-09-06T08:26:36.581Z,6.70
2022-09-06T08:29:09.152Z,6.97
2022-09-06T08:31:40.071Z,6.40
2022-09-06T08:34:08.339Z,9.70
2022-09-06T08:36:40.129Z,6.80
2022-09-06T08:39:10.818Z,6.43
2022-09-06T08:42:04.988Z,6.53
2022-09-06T08:44:56.669Z,8.23
2022-09-06T08:47:25.225Z,6.70
2022-09-06T08:50:09.610Z,6.95
2022-09-06T08:56:36.084Z,6.07
2022-09-06T08:59:23.643Z,6.75
2022-09-06T09:02:05.946Z,6.13
2022-09-06T09:04:36.273Z,6.15
2022-09-06T09:07:24.743Z,5.40
2022-09-06T09:10:01.290Z,5.80
2022-09-06T09:12:32.765Z,5.57
2022-09-06T09:17:59.886Z,7.18
2022-09-06T09:20:42.057Z,6.65
2022-09-06T09:23:10.625Z,6.40
2022-09-06T09:25:39.739Z,6.95
2022-09-06T09:28:16.932Z,5.53
2022-09-06T09:30:52.964Z,7.60
2022-09-06T09:33:23.801Z,5.60
2022-09-06T09:39:46.705Z,6.40
2022-09-06T09:42:26.821Z,6.78
2022-09-06T09:44:54.456Z,5.15
2022-09-06T09:47:31.085Z,5.35
2022-09-06T09:49:59.259Z,5.20
2022-09-06T09:52:31.810Z,5.82
2022-09-06T09:55:05.685Z,5.65
2022-09-06T09:57:47.744Z,5.33
2022-09-06T10:00:32.703Z,5.40
2022-09-06T10:03:01.370Z,4.68
2022-09-06T10:05:32.798Z,4.93
2022-09-06T10:08:00.814Z,5.57
2022-09-06T10:10:32.618Z,5.78
2022-09-06T10:13:21.774Z,6.03
2022-09-06T10:15:54.451Z,5.97
2022-09-06T10:18:35.592Z,5.27
2022-09-06T10:21:06.223Z,5.83
2022-09-06T10:27:01.275Z,5.50
2022-09-06T10:29:42.922Z,6.82
2022-09-06T10:32:32.044Z,6.28
2022-09-06T10:35:31.045Z,5.47
2022-09-06T10:38:17.061Z,5.75
2022-09-06T10:41:25.301Z,6.03
2022-09-06T10:44:17.291Z,5.50
2022-09-06T10:46:46.449Z,5.50
2022-09-06T10:49:20.090Z,5.60
2022-09-06T10:51:56.993Z,5.72
2022-09-06T10:54:25.627Z,6.05
2022-09-06T11:00:13.305Z,5.40
2022-09-06T11:05:51.693Z,6.27
2022-09-06T11:08:47.193Z,6.83
2022-09-06T11:11:44.368Z,6.57
2022-09-06T11:14:14.055Z,6.68
2022-09-06T11:17:06.703Z,5.88
2022-09-06T11:19:54.659Z,6.10
2022-09-06T11:22:37.540Z,7.32
2022-09-06T11:25:23.628Z,7.50
2022-09-06T11:27:58.067Z,6.87
2022-09-06T11:30:26.958Z,7.87
2022-09-06T11:33:28.433Z,7.00
2022-09-06T11:36:17.095Z,8.90
2022-09-06T11:38:55.899Z,7.45
2022-09-06T11:41:31.855Z,6.65
2022-09-06T11:43:59.723Z,6.53
2022-09-06T11:46:36.201Z,6.88
2022-09-06T11:49:23.617Z,6.85
2022-09-06T11:51:51.320Z,7.30
2022-09-06T11:54:18.874Z,6.27
2022-09-06T11:56:46.385Z,6.18
2022-09-06T11:59:27.324Z,5.80
2022-09-06T12:02:05.029Z,5.75
2022-09-06T12:05:07.630Z,5.00
2022-09-06T12:07:37.937Z,5.78
2022-09-06T12:10:30.232Z,6.60
2022-09-06T12:12:59.085Z,5.40
2022-09-06T12:15:45.240Z,5.55
2022-09-06T12:18:59.182Z,6.07
2022-09-06T12:21:46.606Z,6.50
2022-09-06T12:24:40.625Z,6.35
2022-09-06T12:27:17.647Z,6.63
2022-09-06T12:30:36.247Z,6.00
2022-09-06T12:33:36.756Z,7.00
2022-09-06T12:36:29.918Z,6.70
2022-09-06T12:39:00.468Z,7.03
2022-09-06T12:41:31.447Z,8.48
2022-09-06T12:44:00.935Z,7.57
2022-09-06T12:46:31.184Z,8.90
2022-09-06T12:49:12.734Z,9.37
2022-09-06T12:51:41.366Z,8.38
2022-09-06T12:54:22.874Z,8.70
2022-09-06T12:56:51.738Z,7.20
2022-09-06T12:59:22.168Z,7.20
2022-09-06T13:02:13.958Z,6.22
2022-09-06T13:04:44.174Z,5.73
2022-09-06T13:07:17.780Z,5.80
2022-09-06T13:09:49.361Z,5.50
2022-09-06T13:12:42.246Z,5.45
2022-09-06T13:15:39.468Z,6.03
2022-09-06T13:18:39.837Z,5.25
2022-09-06T13:21:12.226Z,4.80
2022-09-06T13:23:43.595Z,4.88
2022-09-06T13:26:11.240Z,6.50
2022-09-06T13:28:39.002Z,6.72
2022-09-06T13:31:18.583Z,5.82
2022-09-06T13:33:54.803Z,5.70
2022-09-06T13:36:26.845Z,5.70
2022-09-06T13:38:55.746Z,6.90
2022-09-06T13:41:26.369Z,6.23
2022-09-06T13:44:08.317Z,5.72
2022-09-06T13:46:36.802Z,5.50
2022-09-06T13:49:05.871Z,5.18
2022-09-06T13:51:34.248Z,5.50
2022-09-06T13:54:10.720Z,5.78
2022-09-06T13:56:39.514Z,5.20
2022-09-06T13:59:08.010Z,5.53
2022-09-06T14:01:35.910Z,6.43
2022-09-06T14:04:04.955Z,5.97
2022-09-06T14:06:36.656Z,5.82
2022-09-06T14:09:07.813Z,8.85
2022-09-06T14:11:36.858Z,6.05
2022-09-06T14:14:07.068Z,5.60
2022-09-06T14:16:34.806Z,5.40
2022-09-06T14:19:03.403Z,5.78
2022-09-06T14:21:31.437Z,5.68
2022-09-06T14:24:03.476Z,5.13
2022-09-06T14:26:33.633Z,6.03
2022-09-06T14:29:01.546Z,7.40
2022-09-06T14:31:29.853Z,6.95
2022-09-06T14:33:57.670Z,5.22
2022-09-06T14:36:34.402Z,4.80
2022-09-06T14:39:04.243Z,4.00
2022-09-06T14:41:32.102Z,4.20
2022-09-06T14:44:00.505Z,4.00
2022-09-06T14:46:30.137Z,3.67
2022-09-06T14:49:07.644Z,3.60
2022-09-06T14:51:38.347Z,3.63
2022-09-06T14:54:11.278Z,3.22
2022-09-06T14:56:40.669Z,3.73
2022-09-06T14:59:09.387Z,4.00
2022-09-06T15:01:38.796Z,3.75
2022-09-06T15:04:09.404Z,3.90
2022-09-06T15:06:40.051Z,4.60
2022-09-06T15:09:08.281Z,4.82
2022-09-06T15:11:37.786Z,5.72
2022-09-06T15:14:08.706Z,4.13
2022-09-06T15:16:36.375Z,3.90
2022-09-06T15:19:04.239Z,4.05
2022-09-06T15:21:32.909Z,4.15
2022-09-06T15:24:02.229Z,5.30
2022-09-06T15:26:30.528Z,4.38
2022-09-06T15:28:59.626Z,3.60
2022-09-06T15:31:27.683Z,3.40
2022-09-06T15:33:55.807Z,3.73
2022-09-06T15:36:23.632Z,4.60
2022-09-06T15:38:52.539Z,4.18
2022-09-06T15:41:24.551Z,4.75
2022-09-06T15:43:57.960Z,4.53
2022-09-06T15:46:47.868Z,4.50
2022-09-06T15:49:28.347Z,4.10
2022-09-06T15:51:58.406Z,5.80
2022-09-06T15:54:44.601Z,5.18
2022-09-06T15:57:13.626Z,4.75
2022-09-06T15:59:41.441Z,4.20
2022-09-06T16:02:10.217Z,3.60
2022-09-06T16:04:38.300Z,4.35
2022-09-06T16:07:06.882Z,4.17
2022-09-06T16:09:34.873Z,4.10
2022-09-06T16:12:02.714Z,4.00
2022-09-06T16:14:30.627Z,3.80
2022-09-06T16:17:00.003Z,5.50
2022-09-06T16:19:27.622Z,10.73
2022-09-06T16:21:55.393Z,4.53
2022-09-06T16:24:28.398Z,3.97
2022-09-06T16:26:56.264Z,4.40
2022-09-06T16:29:24.313Z,6.35
2022-09-06T16:31:56.827Z,3.85
2022-09-06T16:34:25.139Z,3.53
2022-09-06T16:36:53.178Z,3.70
2022-09-06T16:39:21.151Z,4.60
2022-09-06T16:41:48.706Z,3.43
2022-09-06T16:44:18.456Z,5.60
2022-09-06T16:46:49.457Z,6.90
2022-09-06T16:49:18.047Z,5.63
2022-09-06T16:51:48.487Z,4.10
2022-09-06T16:54:19.475Z,4.22
2022-09-06T16:56:47.274Z,5.33
2022-09-06T16:59:19.057Z,5.28
2022-09-06T17:01:47.480Z,5.32
2022-09-06T17:04:16.895Z,3.83
2022-09-06T17:06:45.267Z,4.10
2022-09-06T17:09:15.167Z,4.05
2022-09-06T17:11:43.160Z,5.30
2022-09-06T17:14:10.951Z,4.57
2022-09-06T17:16:57.469Z,4.18
2022-09-06T17:19:25.718Z,4.32
2022-09-06T17:21:53.725Z,5.55
2022-09-06T17:24:21.861Z,5.00
2022-09-06T17:26:49.647Z,4.23
2022-09-06T17:29:17.186Z,4.20
2022-09-06T17:31:44.903Z,4.22
2022-09-06T17:34:12.735Z,5.13
2022-09-06T17:36:40.876Z,5.95
2022-09-06T17:39:13.407Z,5.10
2022-09-06T17:41:46.414Z,8.23
2022-09-06T17:44:17.303Z,3.80
2022-09-06T17:47:02.762Z,5.30
2022-09-06T17:49:34.271Z,4.97
2022-09-06T17:52:01.891Z,4.53
2022-09-06T17:54:31.989Z,4.85
2022-09-06T17:56:59.675Z,3.87
2022-09-06T17:59:34.217Z,4.68
2022-09-06T18:02:05.312Z,5.10
2022-09-06T18:04:33.428Z,4.25
2022-09-06T18:07:01.239Z,4.63
2022-09-06T18:09:30.408Z,4.88
2022-09-06T18:11:58.588Z,4.43
2022-09-06T18:14:28.834Z,3.80
2022-09-06T18:16:59.185Z,3.97
2022-09-06T18:19:28.054Z,4.53
2022-09-06T18:21:57.416Z,4.40
2022-09-06T18:24:26.329Z,5.28
2022-09-06T18:26:55.539Z,6.10
2022-09-06T18:29:28.122Z,4.80
2022-09-06T18:31:57.455Z,3.70
2022-09-06T18:34:25.188Z,3.88
2022-09-06T18:36:52.931Z,4.00
2022-09-06T18:39:20.845Z,4.50
2022-09-06T18:42:00.538Z,4.20
2022-09-06T18:44:33.063Z,4.13
2022-09-06T18:47:02.328Z,3.40
2022-09-06T18:49:32.210Z,4.53
2022-09-06T18:52:04.343Z,4.18
2022-09-06T18:54:33.130Z,4.00
2022-09-06T18:57:00.878Z,3.60
2022-09-06T18:59:30.741Z,3.70
2022-09-06T19:01:58.573Z,4.63
2022-09-06T19:04:28.098Z,4.57
2022-09-06T19:06:55.791Z,3.88
2022-09-06T19:09:24.277Z,4.35
2022-09-06T19:11:53.539Z,4.70
2022-09-06T19:14:21.948Z,3.87
2022-09-06T19:16:51.632Z,3.63
2022-09-06T19:19:19.484Z,4.03
2022-09-06T19:21:47.714Z,4.15
2022-09-06T19:24:16.413Z,3.78
2022-09-06T19:26:47.375Z,3.85
2022-09-06T19:29:20.325Z,3.77
2022-09-06T19:31:50.150Z,4.27
2022-09-06T19:34:17.983Z,4.40
2022-09-06T19:36:45.835Z,4.20
2022-09-06T19:39:16.006Z,4.30
2022-09-06T19:41:46.732Z,4.18
2022-09-06T19:44:16.657Z,4.80
2022-09-06T20:51:33.388Z,3.50
2022-09-06T20:54:02.898Z,3.45
2022-09-06T20:56:36.941Z,3.20
2022-09-06T20:59:07.613Z,3.78
2022-09-06T21:01:37.475Z,4.13
2022-09-06T21:04:06.665Z,3.50
2022-09-06T21:06:36.009Z,3.90
2022-09-06T21:09:05.944Z,3.80
2022-09-06T21:11:34.465Z,3.60
2022-09-06T21:14:05.209Z,3.90
2022-09-06T21:16:33.528Z,4.57
2022-09-06T21:19:04.534Z,4.57
2022-09-06T21:21:35.843Z,4.13
2022-09-06T21:24:05.825Z,4.43
2022-09-06T21:26:33.821Z,3.93
2022-09-06T21:29:02.060Z,4.00
2022-09-06T21:31:36.736Z,4.18
2022-09-06T21:34:16.341Z,4.05
2022-09-06T21:36:45.277Z,4.10
2022-09-06T21:39:16.410Z,4.15
2022-09-06T21:41:44.756Z,4.80
2022-09-06T21:47:03.107Z,5.22
2022-09-06T21:49:30.811Z,4.80
2022-09-06T21:51:59.721Z,4.25
2022-09-06T21:54:28.601Z,4.28
2022-09-06T21:56:56.416Z,4.77
2022-09-06T21:59:24.218Z,4.63
2022-09-06T22:01:54.592Z,5.20
2022-09-06T22:04:25.318Z,5.20
2022-09-06T22:06:55.233Z,4.55
2022-09-06T22:09:25.399Z,4.95
2022-09-06T22:11:56.187Z,4.63
2022-09-06T22:14:23.905Z,4.55
2022-09-06T22:16:53.645Z,5.57
2022-09-06T22:19:21.348Z,4.60
2022-09-06T22:21:51.231Z,4.95
2022-09-06T22:24:18.937Z,4.45
2022-09-06T22:26:46.658Z,4.07
2022-09-06T22:29:15.546Z,4.20
2022-09-06T22:31:43.875Z,4.20
2022-09-06T22:34:13.782Z,4.13
2022-09-06T22:36:41.412Z,4.32
2022-09-06T22:39:09.747Z,4.38
2022-09-06T22:41:39.841Z,4.45
2022-09-06T22:44:10.631Z,5.28
2022-09-06T22:46:38.488Z,4.78
2022-09-06T22:49:06.183Z,5.50
2022-09-06T22:51:33.967Z,5.40
2022-09-06T22:54:05.641Z,5.70
2022-09-06T22:56:34.021Z,5.45
2022-09-06T22:59:02.136Z,5.50
2022-09-06T23:01:29.995Z,5.65
2022-09-06T23:03:57.716Z,6.03
2022-09-06T23:06:26.159Z,5.40
2022-09-06T23:08:53.920Z,5.53
2022-09-06T23:11:22.313Z,5.50
2022-09-06T23:13:51.022Z,5.43
2022-09-06T23:16:20.055Z,5.43
2022-09-06T23:18:49.501Z,5.50
2022-09-06T23:21:19.719Z,5.15
2022-09-06T23:23:49.375Z,4.90
2022-09-06T23:26:25.493Z,5.15
2022-09-06T23:28:56.960Z,5.63
2022-09-06T23:31:27.194Z,4.75
2022-09-06T23:33:59.132Z,4.60
2022-09-06T23:36:27.367Z,5.00
2022-09-06T23:38:56.117Z,4.88
2022-09-06T23:41:24.984Z,4.25
2022-09-06T23:43:52.987Z,4.00
2022-09-06T23:46:20.942Z,3.93
2022-09-06T23:48:48.746Z,4.05
2022-09-06T23:51:18.649Z,4.53
2022-09-06T23:53:46.754Z,3.90
2022-09-06T23:56:14.438Z,4.22
2022-09-06T23:58:44.245Z,3.92
